sensor_id;sensor_type;location;lat;lon;timestamp;pressure;altitude;pressure_sealevel;temperature;humidity
42811;BME280;28457;55.680;37.656;2022-11-21T10:40:43;100283.31;;;0.62;57.89
42811;BME280;28457;55.680;37.656;2022-11-21T10:46:15;100279.81;;;0.62;57.66
42811;BME280;28457;55.680;37.656;2022-11-21T10:48:45;100271.97;;;0.60;58.15
42811;BME280;28457;55.680;37.656;2022-11-21T10:51:18;100271.13;;;0.60;58.29
42811;BME280;28457;55.680;37.656;2022-11-21T10:54:02;100273.06;;;0.58;57.29
42811;BME280;28457;55.680;37.656;2022-11-21T10:56:49;100270.53;;;0.56;57.83
42811;BME280;28457;55.680;37.656;2022-11-21T10:59:20;100271.63;;;0.54;58.40
42811;BME280;28457;55.680;37.656;2022-11-21T11:01:56;100274.16;;;0.55;58.09
42811;BME280;28457;55.680;37.656;2022-11-21T11:04:26;100261.72;;;0.56;58.56
42811;BME280;28457;55.680;37.656;2022-11-21T11:07:01;100257.28;;;0.56;58.67
42811;BME280;28457;55.680;37.656;2022-11-21T11:09:46;100244.25;;;0.53;58.30
42811;BME280;28457;55.680;37.656;2022-11-21T11:12:23;100229.31;;;0.52;58.16
42811;BME280;28457;55.680;37.656;2022-11-21T11:15:16;100245.00;;;0.55;58.46
42811;BME280;28457;55.680;37.656;2022-11-21T11:17:47;100244.03;;;0.56;58.95
42811;BME280;28457;55.680;37.656;2022-11-21T11:20:27;100240.44;;;0.57;58.76
42811;BME280;28457;55.680;37.656;2022-11-21T11:22:56;100239.56;;;0.57;58.85
42811;BME280;28457;55.680;37.656;2022-11-21T11:25:24;100242.09;;;0.58;58.89
42811;BME280;28457;55.680;37.656;2022-11-21T11:27:53;100236.06;;;0.56;58.48
42811;BME280;28457;55.680;37.656;2022-11-21T11:30:22;100235.00;;;0.59;58.71
42811;BME280;28457;55.680;37.656;2022-11-21T11:32:50;100230.66;;;0.58;58.78
42811;BME280;28457;55.680;37.656;2022-11-21T11:35:20;100231.38;;;0.60;58.96
42811;BME280;28457;55.680;37.656;2022-11-21T11:37:52;100228.50;;;0.63;58.85
42811;BME280;28457;55.680;37.656;2022-11-21T11:40:24;100226.69;;;0.63;58.69
42811;BME280;28457;55.680;37.656;2022-11-21T11:43:00;100230.44;;;0.61;59.20
42811;BME280;28457;55.680;37.656;2022-11-21T11:46:00;100238.13;;;0.64;58.60
42811;BME280;28457;55.680;37.656;2022-11-21T11:48:50;100233.69;;;0.64;58.65
42811;BME280;28457;55.680;37.656;2022-11-21T11:51:43;100245.97;;;0.65;59.16
42811;BME280;28457;55.680;37.656;2022-11-21T11:54:13;100241.50;;;0.66;59.02
42811;BME280;28457;55.680;37.656;2022-11-21T11:56:44;100234.63;;;0.63;58.58
42811;BME280;28457;55.680;37.656;2022-11-21T11:59:15;100224.41;;;0.59;58.61
42811;BME280;28457;55.680;37.656;2022-11-21T12:01:47;100222.59;;;0.59;58.66
42811;BME280;28457;55.680;37.656;2022-11-21T12:04:19;100223.44;;;0.60;58.72
42811;BME280;28457;55.680;37.656;2022-11-21T12:06:49;100228.97;;;0.57;58.79
42811;BME280;28457;55.680;37.656;2022-11-21T12:09:39;100224.41;;;0.59;58.64
42811;BME280;28457;55.680;37.656;2022-11-21T12:12:12;100221.97;;;0.56;58.78
42811;BME280;28457;55.680;37.656;2022-11-21T12:15:03;100215.84;;;0.55;58.59
42811;BME280;28457;55.680;37.656;2022-11-21T12:17:59;100216.69;;;0.56;58.22
42811;BME280;28457;55.680;37.656;2022-11-21T12:20:35;100231.97;;;0.52;58.33
42811;BME280;28457;55.680;37.656;2022-11-21T12:23:03;100236.56;;;0.50;58.38
42811;BME280;28457;55.680;37.656;2022-11-21T12:25:35;100228.94;;;0.45;58.62
42811;BME280;28457;55.680;37.656;2022-11-21T12:28:06;100227.63;;;0.40;58.77
42811;BME280;28457;55.680;37.656;2022-11-21T12:30:45;100230.50;;;0.37;59.31
42811;BME280;28457;55.680;37.656;2022-11-21T12:33:18;100237.09;;;0.31;59.36
42811;BME280;28457;55.680;37.656;2022-11-21T12:36:01;100227.72;;;0.27;58.80
42811;BME280;28457;55.680;37.656;2022-11-21T12:38:48;100226.50;;;0.31;58.78
42811;BME280;28457;55.680;37.656;2022-11-21T12:41:20;100241.69;;;0.29;59.35
42811;BME280;28457;55.680;37.656;2022-11-21T12:44:14;100239.50;;;0.23;59.10
42811;BME280;28457;55.680;37.656;2022-11-21T12:46:53;100245.16;;;0.18;59.88
42811;BME280;28457;55.680;37.656;2022-11-21T12:49:27;100246.69;;;0.21;59.35
42811;BME280;28457;55.680;37.656;2022-11-21T12:52:20;100234.31;;;0.21;58.98
42811;BME280;28457;55.680;37.656;2022-11-21T12:55:12;100235.41;;;0.19;59.31
42811;BME280;28457;55.680;37.656;2022-11-21T12:57:49;100238.28;;;0.16;59.12
42811;BME280;28457;55.680;37.656;2022-11-21T13:00:24;100226.84;;;0.15;59.17
42811;BME280;28457;55.680;37.656;2022-11-21T13:03:15;100225.16;;;0.14;59.26
42811;BME280;28457;55.680;37.656;2022-11-21T13:05:47;100217.44;;;0.11;59.50
42811;BME280;28457;55.680;37.656;2022-11-21T13:08:17;100220.09;;;0.11;59.76
42811;BME280;28457;55.680;37.656;2022-11-21T13:10:51;100230.69;;;0.11;59.52
42811;BME280;28457;55.680;37.656;2022-11-21T13:13:42;100214.66;;;0.13;59.05
42811;BME280;28457;55.680;37.656;2022-11-21T13:16:15;100208.41;;;0.14;58.97
42811;BME280;28457;55.680;37.656;2022-11-21T13:19:09;100211.41;;;0.09;58.87
42811;BME280;28457;55.680;37.656;2022-11-21T13:21:39;100210.44;;;0.10;58.91
42811;BME280;28457;55.680;37.656;2022-11-21T13:24:07;100208.75;;;0.09;59.02
42811;BME280;28457;55.680;37.656;2022-11-21T13:26:46;100213.06;;;0.10;59.06
42811;BME280;28457;55.680;37.656;2022-11-21T13:29:18;100216.47;;;0.12;59.23
42811;BME280;28457;55.680;37.656;2022-11-21T13:31:46;100213.81;;;0.12;59.18
42811;BME280;28457;55.680;37.656;2022-11-21T13:34:35;100215.63;;;0.12;59.23
42811;BME280;28457;55.680;37.656;2022-11-21T13:37:04;100211.31;;;0.11;59.53
42811;BME280;28457;55.680;37.656;2022-11-21T13:39:36;100199.84;;;0.10;59.29
42811;BME280;28457;55.680;37.656;2022-11-21T13:42:13;100199.00;;;0.10;59.65
42811;BME280;28457;55.680;37.656;2022-11-21T13:48:04;100198.28;;;0.08;59.19
42811;BME280;28457;55.680;37.656;2022-11-21T13:53:33;100214.28;;;0.06;58.96
42811;BME280;28457;55.680;37.656;2022-11-21T13:56:06;100213.56;;;0.04;59.36
42811;BME280;28457;55.680;37.656;2022-11-21T13:58:44;100205.72;;;0.03;59.50
42811;BME280;28457;55.680;37.656;2022-11-21T14:06:48;100209.34;;;0.02;59.63
42811;BME280;28457;55.680;37.656;2022-11-21T14:09:24;100201.38;;;0.02;59.94
42811;BME280;28457;55.680;37.656;2022-11-21T14:11:55;100207.66;;;0.01;59.47
42811;BME280;28457;55.680;37.656;2022-11-21T14:14:28;100203.66;;;-0.05;59.85
42811;BME280;28457;55.680;37.656;2022-11-21T14:17:13;100210.59;;;-0.15;59.46
42811;BME280;28457;55.680;37.656;2022-11-21T14:19:45;100202.28;;;-0.11;59.44
42811;BME280;28457;55.680;37.656;2022-11-21T14:22:15;100205.53;;;-0.18;59.38
42811;BME280;28457;55.680;37.656;2022-11-21T14:24:58;100200.97;;;-0.16;59.43
42811;BME280;28457;55.680;37.656;2022-11-21T14:27:28;100198.41;;;-0.18;59.74
42811;BME280;28457;55.680;37.656;2022-11-21T14:29:57;100194.00;;;-0.17;59.13
42811;BME280;28457;55.680;37.656;2022-11-21T14:32:26;100194.00;;;-0.17;59.14
42811;BME280;28457;55.680;37.656;2022-11-21T14:35:07;100195.69;;;-0.16;59.29
42811;BME280;28457;55.680;37.656;2022-11-21T14:37:38;100194.94;;;-0.18;59.43
42811;BME280;28457;55.680;37.656;2022-11-21T14:40:10;100200.56;;;-0.23;59.36
42811;BME280;28457;55.680;37.656;2022-11-21T14:42:39;100199.59;;;-0.22;59.56
42811;BME280;28457;55.680;37.656;2022-11-21T14:45:13;100197.09;;;-0.23;59.86
42811;BME280;28457;55.680;37.656;2022-11-21T14:47:46;100201.31;;;-0.21;59.83
42811;BME280;28457;55.680;37.656;2022-11-21T14:50:22;100201.53;;;-0.24;60.30
42811;BME280;28457;55.680;37.656;2022-11-21T14:52:51;100208.03;;;-0.28;60.02
42811;BME280;28457;55.680;37.656;2022-11-21T14:55:25;100201.63;;;-0.26;59.67
42811;BME280;28457;55.680;37.656;2022-11-21T14:57:57;100201.63;;;-0.26;60.03
42811;BME280;28457;55.680;37.656;2022-11-21T15:00:26;100206.53;;;-0.32;59.81
42811;BME280;28457;55.680;37.656;2022-11-21T15:03:16;100204.16;;;-0.35;60.04
42811;BME280;28457;55.680;37.656;2022-11-21T15:05:45;100202.91;;;-0.42;59.99
42811;BME280;28457;55.680;37.656;2022-11-21T15:08:30;100200.47;;;-0.45;59.77
42811;BME280;28457;55.680;37.656;2022-11-21T15:11:20;100187.13;;;-0.44;59.73
42811;BME280;28457;55.680;37.656;2022-11-21T15:13:51;100191.72;;;-0.46;59.76
42811;BME280;28457;55.680;37.656;2022-11-21T15:16:40;100186.16;;;-0.43;60.09
42811;BME280;28457;55.680;37.656;2022-11-21T15:19:08;100180.88;;;-0.43;60.01
42811;BME280;28457;55.680;37.656;2022-11-21T15:21:37;100188.72;;;-0.41;59.43
42811;BME280;28457;55.680;37.656;2022-11-21T15:24:15;100191.72;;;-0.46;59.96
42811;BME280;28457;55.680;37.656;2022-11-21T15:26:45;100185.44;;;-0.45;60.73
42811;BME280;28457;55.680;37.656;2022-11-21T15:29:17;100182.91;;;-0.46;60.94
42811;BME280;28457;55.680;37.656;2022-11-21T15:34:29;100176.53;;;-0.44;59.82
42811;BME280;28457;55.680;37.656;2022-11-21T15:37:03;100169.44;;;-0.43;60.10
42811;BME280;28457;55.680;37.656;2022-11-21T15:39:33;100167.53;;;-0.41;60.59
42811;BME280;28457;55.680;37.656;2022-11-21T15:44:57;100167.97;;;-0.47;61.01
42811;BME280;28457;55.680;37.656;2022-11-21T15:47:26;100163.03;;;-0.52;61.57
42811;BME280;28457;55.680;37.656;2022-11-21T15:49:54;100169.31;;;-0.53;61.38
42811;BME280;28457;55.680;37.656;2022-11-21T15:52:22;100169.31;;;-0.53;61.90
42811;BME280;28457;55.680;37.656;2022-11-21T15:54:50;100162.66;;;-0.59;61.56
42811;BME280;28457;55.680;37.656;2022-11-21T15:57:18;100165.78;;;-0.54;61.75
42811;BME280;28457;55.680;37.656;2022-11-21T15:59:48;100174.06;;;-0.58;61.77
42811;BME280;28457;55.680;37.656;2022-11-21T16:02:17;100170.38;;;-0.56;61.61
42811;BME280;28457;55.680;37.656;2022-11-21T16:04:45;100177.34;;;-0.55;61.56
42811;BME280;28457;55.680;37.656;2022-11-21T16:07:15;100170.22;;;-0.54;61.66
42811;BME280;28457;55.680;37.656;2022-11-21T16:09:43;100164.00;;;-0.53;62.03
42811;BME280;28457;55.680;37.656;2022-11-21T16:12:11;100168.22;;;-0.51;62.22
42811;BME280;28457;55.680;37.656;2022-11-21T16:14:40;100175.94;;;-0.47;62.00
42811;BME280;28457;55.680;37.656;2022-11-21T16:17:08;100182.06;;;-0.47;62.24
42811;BME280;28457;55.680;37.656;2022-11-21T16:19:37;100176.66;;;-0.45;61.48
42811;BME280;28457;55.680;37.656;2022-11-21T16:22:05;100171.25;;;-0.44;61.47
42811;BME280;28457;55.680;37.656;2022-11-21T16:24:33;100167.63;;;-0.43;61.82
42811;BME280;28457;55.680;37.656;2022-11-21T16:27:01;100173.81;;;-0.42;61.51
42811;BME280;28457;55.680;37.656;2022-11-21T16:29:29;100171.16;;;-0.42;62.40
42811;BME280;28457;55.680;37.656;2022-11-21T16:31:57;100179.19;;;-0.44;61.63
42811;BME280;28457;55.680;37.656;2022-11-21T16:34:26;100175.56;;;-0.43;62.23
42811;BME280;28457;55.680;37.656;2022-11-21T16:36:55;100174.88;;;-0.45;61.81
42811;BME280;28457;55.680;37.656;2022-11-21T16:39:29;100174.72;;;-0.43;61.72
42811;BME280;28457;55.680;37.656;2022-11-21T16:41:58;100178.13;;;-0.41;61.44
42811;BME280;28457;55.680;37.656;2022-11-21T16:44:27;100170.19;;;-0.41;62.15
42811;BME280;28457;55.680;37.656;2022-11-21T16:46:56;100171.88;;;-0.40;62.42
42811;BME280;28457;55.680;37.656;2022-11-21T16:49:32;100173.44;;;-0.38;62.21
42811;BME280;28457;55.680;37.656;2022-11-21T16:52:01;100171.66;;;-0.37;62.33
42811;BME280;28457;55.680;37.656;2022-11-21T16:54:29;100179.81;;;-0.40;62.47
42811;BME280;28457;55.680;37.656;2022-11-21T16:56:57;100177.06;;;-0.39;62.33
42811;BME280;28457;55.680;37.656;2022-11-21T16:59:25;100175.25;;;-0.38;62.47
42811;BME280;28457;55.680;37.656;2022-11-21T17:01:54;100171.66;;;-0.37;62.56
42811;BME280;28457;55.680;37.656;2022-11-21T17:04:22;100168.38;;;-0.41;61.80
42811;BME280;28457;55.680;37.656;2022-11-21T17:06:50;100161.50;;;-0.43;62.90
42811;BME280;28457;55.680;37.656;2022-11-21T17:09:20;100153.78;;;-0.46;62.57
42811;BME280;28457;55.680;37.656;2022-11-21T17:11:48;100150.31;;;-0.47;62.08
42811;BME280;28457;55.680;37.656;2022-11-21T17:14:16;100148.50;;;-0.46;62.71
42811;BME280;28457;55.680;37.656;2022-11-21T17:16:44;100145.84;;;-0.46;62.78
42811;BME280;28457;55.680;37.656;2022-11-21T17:19:14;100147.44;;;-0.44;62.32
42811;BME280;28457;55.680;37.656;2022-11-21T17:21:42;100147.34;;;-0.42;62.34
42811;BME280;28457;55.680;37.656;2022-11-21T17:24:11;100142.03;;;-0.42;62.58
42811;BME280;28457;55.680;37.656;2022-11-21T17:26:40;100139.50;;;-0.44;62.40
42811;BME280;28457;55.680;37.656;2022-11-21T17:29:08;100128.91;;;-0.44;62.81
42811;BME280;28457;55.680;37.656;2022-11-21T17:31:37;100130.50;;;-0.41;63.08
42811;BME280;28457;55.680;37.656;2022-11-21T17:34:07;100136.13;;;-0.46;62.75
42811;BME280;28457;55.680;37.656;2022-11-21T17:36:35;100135.03;;;-0.43;63.11
42811;BME280;28457;55.680;37.656;2022-11-21T17:39:03;100137.69;;;-0.43;62.77
42811;BME280;28457;55.680;37.656;2022-11-21T17:41:31;100138.53;;;-0.43;63.67
42811;BME280;28457;55.680;37.656;2022-11-21T17:44:01;100127.94;;;-0.43;63.53
42811;BME280;28457;55.680;37.656;2022-11-21T17:46:29;100128.06;;;-0.44;63.70
42811;BME280;28457;55.680;37.656;2022-11-21T17:48:57;100128.06;;;-0.44;63.94
42811;BME280;28457;55.680;37.656;2022-11-21T17:51:26;100129.88;;;-0.45;64.19
42811;BME280;28457;55.680;37.656;2022-11-21T17:53:55;100130.72;;;-0.44;63.30
42811;BME280;28457;55.680;37.656;2022-11-21T17:56:24;100133.38;;;-0.44;63.63
42811;BME280;28457;55.680;37.656;2022-11-21T17:58:52;100136.13;;;-0.46;64.16
42811;BME280;28457;55.680;37.656;2022-11-21T18:01:22;100144.16;;;-0.47;63.84
42811;BME280;28457;55.680;37.656;2022-11-21T18:03:52;100141.97;;;-0.54;64.02
42811;BME280;28457;55.680;37.656;2022-11-21T18:06:21;100148.84;;;-0.51;64.44
42811;BME280;28457;55.680;37.656;2022-11-21T18:08:50;100147.03;;;-0.51;63.94
42811;BME280;28457;55.680;37.656;2022-11-21T18:11:19;100150.66;;;-0.52;64.49
42811;BME280;28457;55.680;37.656;2022-11-21T18:13:47;100138.50;;;-0.54;63.97
42811;BME280;28457;55.680;37.656;2022-11-21T18:16:17;100138.25;;;-0.51;63.67
42811;BME280;28457;55.680;37.656;2022-11-21T18:18:47;100138.72;;;-0.57;64.83
42811;BME280;28457;55.680;37.656;2022-11-21T18:21:16;100130.56;;;-0.54;64.47
42811;BME280;28457;55.680;37.656;2022-11-21T18:23:45;100124.53;;;-0.56;64.43
42811;BME280;28457;55.680;37.656;2022-11-21T18:26:13;100119.47;;;-0.59;64.86
42811;BME280;28457;55.680;37.656;2022-11-21T18:28:42;100114.28;;;-0.61;64.90
42811;BME280;28457;55.680;37.656;2022-11-21T18:31:10;100119.47;;;-0.59;64.37
42811;BME280;28457;55.680;37.656;2022-11-21T18:33:39;100110.56;;;-0.58;64.81
42811;BME280;28457;55.680;37.656;2022-11-21T18:36:10;100112.50;;;-0.60;64.51
42811;BME280;28457;55.680;37.656;2022-11-21T18:38:40;100111.03;;;-0.64;64.43
42811;BME280;28457;55.680;37.656;2022-11-21T18:41:26;100103.22;;;-0.66;65.08
42811;BME280;28457;55.680;37.656;2022-11-21T18:43:55;100104.28;;;-0.68;65.17
42811;BME280;28457;55.680;37.656;2022-11-21T18:46:24;100103.78;;;-0.74;65.29
42811;BME280;28457;55.680;37.656;2022-11-21T18:48:52;100097.44;;;-0.71;64.53
42811;BME280;28457;55.680;37.656;2022-11-21T18:51:32;100088.31;;;-0.67;64.59
42811;BME280;28457;55.680;37.656;2022-11-21T18:54:01;100088.94;;;-0.63;64.64
42811;BME280;28457;55.680;37.656;2022-11-21T18:56:31;100090.59;;;-0.62;64.96
42811;BME280;28457;55.680;37.656;2022-11-21T18:58:59;100089.53;;;-0.60;65.08
42811;BME280;28457;55.680;37.656;2022-11-21T19:01:29;100098.19;;;-0.58;64.65
42811;BME280;28457;55.680;37.656;2022-11-21T19:03:57;100083.28;;;-0.59;64.43
42811;BME280;28457;55.680;37.656;2022-11-21T19:06:26;100078.97;;;-0.60;64.93
42811;BME280;28457;55.680;37.656;2022-11-21T19:08:56;100085.31;;;-0.62;64.11
42811;BME280;28457;55.680;37.656;2022-11-21T19:11:25;100077.50;;;-0.64;64.68
42811;BME280;28457;55.680;37.656;2022-11-21T19:13:54;100076.03;;;-0.68;64.71
42811;BME280;28457;55.680;37.656;2022-11-21T19:16:22;100075.09;;;-0.67;65.22
42811;BME280;28457;55.680;37.656;2022-11-21T19:18:51;100078.56;;;-0.66;64.52
42811;BME280;28457;55.680;37.656;2022-11-21T19:21:40;100076.03;;;-0.68;64.34
42811;BME280;28457;55.680;37.656;2022-11-21T19:24:10;100076.88;;;-0.67;65.04
42811;BME280;28457;55.680;37.656;2022-11-21T19:26:40;100073.28;;;-0.66;64.43
42811;BME280;28457;55.680;37.656;2022-11-21T19:29:08;100072.53;;;-0.68;64.25
42811;BME280;28457;55.680;37.656;2022-11-21T19:31:36;100066.19;;;-0.66;65.29
42811;BME280;28457;55.680;37.656;2022-11-21T19:34:11;100060.88;;;-0.66;65.17
42811;BME280;28457;55.680;37.656;2022-11-21T19:36:39;100056.34;;;-0.64;64.27
42811;BME280;28457;55.680;37.656;2022-11-21T19:39:08;100061.03;;;-0.67;64.76
42811;BME280;28457;55.680;37.656;2022-11-21T19:41:38;100065.56;;;-0.69;65.31
42811;BME280;28457;55.680;37.656;2022-11-21T19:44:06;100057.41;;;-0.66;64.82
42811;BME280;28457;55.680;37.656;2022-11-21T19:46:34;100055.59;;;-0.66;64.52
42811;BME280;28457;55.680;37.656;2022-11-21T19:49:03;100055.59;;;-0.66;65.03
42811;BME280;28457;55.680;37.656;2022-11-21T19:51:33;100053.09;;;-0.67;65.24
42811;BME280;28457;55.680;37.656;2022-11-21T19:54:01;100051.50;;;-0.70;65.47
42811;BME280;28457;55.680;37.656;2022-11-21T19:56:30;100057.63;;;-0.69;65.10
42811;BME280;28457;55.680;37.656;2022-11-21T19:58:59;100050.16;;;-0.76;64.72
42811;BME280;28457;55.680;37.656;2022-11-21T20:01:28;100050.06;;;-0.74;64.50
42811;BME280;28457;55.680;37.656;2022-11-21T20:03:57;100038.72;;;-0.76;64.32
42811;BME280;28457;55.680;37.656;2022-11-21T20:06:26;100028.91;;;-0.74;64.00
42811;BME280;28457;55.680;37.656;2022-11-21T20:08:56;100029.59;;;-0.72;64.30
42811;BME280;28457;55.680;37.656;2022-11-21T20:11:26;100017.22;;;-0.72;65.27
42811;BME280;28457;55.680;37.656;2022-11-21T20:13:54;100018.19;;;-0.73;64.67
42811;BME280;28457;55.680;37.656;2022-11-21T20:16:25;100022.75;;;-0.75;64.92
42811;BME280;28457;55.680;37.656;2022-11-21T20:18:54;100028.75;;;-0.73;65.08
42811;BME280;28457;55.680;37.656;2022-11-21T20:21:23;100032.47;;;-0.75;64.88
42811;BME280;28457;55.680;37.656;2022-11-21T20:23:51;100033.56;;;-0.78;63.80
42811;BME280;28457;55.680;37.656;2022-11-21T20:26:20;100027.09;;;-0.74;64.69
42811;BME280;28457;55.680;37.656;2022-11-21T20:28:48;100030.56;;;-0.73;64.44
42811;BME280;28457;55.680;37.656;2022-11-21T20:31:17;100029.59;;;-0.72;65.03
42811;BME280;28457;55.680;37.656;2022-11-21T20:33:47;100028.66;;;-0.71;64.96
42811;BME280;28457;55.680;37.656;2022-11-21T20:36:16;100026.13;;;-0.73;64.42
42811;BME280;28457;55.680;37.656;2022-11-21T20:38:48;100035.03;;;-0.74;63.83
42811;BME280;28457;55.680;37.656;2022-11-21T20:41:16;100029.72;;;-0.74;64.50
42811;BME280;28457;55.680;37.656;2022-11-21T20:43:44;100029.00;;;-0.76;64.56
42811;BME280;28457;55.680;37.656;2022-11-21T20:46:32;100029.22;;;-0.79;64.74
42811;BME280;28457;55.680;37.656;2022-11-21T20:49:02;100024.28;;;-0.83;64.87
42811;BME280;28457;55.680;37.656;2022-11-21T20:51:30;100024.28;;;-0.83;65.11
42811;BME280;28457;55.680;37.656;2022-11-21T20:54:18;100017.09;;;-0.81;65.26
42811;BME280;28457;55.680;37.656;2022-11-21T20:56:46;100025.59;;;-0.89;65.26
42811;BME280;28457;55.680;37.656;2022-11-21T20:59:15;100029.19;;;-0.90;64.64
42811;BME280;28457;55.680;37.656;2022-11-21T21:01:43;100032.66;;;-0.89;65.18
42811;BME280;28457;55.680;37.656;2022-11-21T21:04:12;100032.78;;;-0.91;65.25
42811;BME280;28457;55.680;37.656;2022-11-21T21:06:40;100018.81;;;-0.93;65.14
42811;BME280;28457;55.680;37.656;2022-11-21T21:09:08;100016.09;;;-0.91;64.82
42811;BME280;28457;55.680;37.656;2022-11-21T21:11:36;100016.94;;;-0.91;65.04
42811;BME280;28457;55.680;37.656;2022-11-21T21:14:20;100016.69;;;-0.88;65.05
42811;BME280;28457;55.680;37.656;2022-11-21T21:16:48;100004.44;;;-0.89;65.22
42811;BME280;28457;55.680;37.656;2022-11-21T21:19:18;100006.22;;;-0.89;65.53
42811;BME280;28457;55.680;37.656;2022-11-21T21:21:47;100012.47;;;-0.90;65.38
42811;BME280;28457;55.680;37.656;2022-11-21T21:24:15;100020.19;;;-0.87;64.40
42811;BME280;28457;55.680;37.656;2022-11-21T21:26:44;100003.34;;;-0.86;65.22
42811;BME280;28457;55.680;37.656;2022-11-21T21:29:14;99998.19;;;-0.88;65.56
42811;BME280;28457;55.680;37.656;2022-11-21T21:31:42;99991.84;;;-0.85;65.45
42811;BME280;28457;55.680;37.656;2022-11-21T21:34:17;99990.13;;;-0.86;64.65
42811;BME280;28457;55.680;37.656;2022-11-21T21:36:46;99974.75;;;-0.92;65.04
42811;BME280;28457;55.680;37.656;2022-11-21T21:39:14;99983.75;;;-0.95;64.74
42811;BME280;28457;55.680;37.656;2022-11-21T21:41:42;99976.66;;;-0.94;65.35
42811;BME280;28457;55.680;37.656;2022-11-21T21:44:13;99993.47;;;-0.95;64.38
42811;BME280;28457;55.680;37.656;2022-11-21T21:46:41;99996.00;;;-0.94;64.89
42811;BME280;28457;55.680;37.656;2022-11-21T21:49:09;99992.75;;;-0.98;64.61
42811;BME280;28457;55.680;37.656;2022-11-21T21:51:39;99995.84;;;-1.04;65.07
42811;BME280;28457;55.680;37.656;2022-11-21T21:54:12;99993.19;;;-1.04;66.18
42811;BME280;28457;55.680;37.656;2022-11-21T21:56:41;99983.81;;;-1.08;64.97
42811;BME280;28457;55.680;37.656;2022-11-21T21:59:09;99990.53;;;-1.04;66.10
42811;BME280;28457;55.680;37.656;2022-11-21T22:01:37;99981.06;;;-1.06;65.16
42811;BME280;28457;55.680;37.656;2022-11-21T22:04:06;99987.50;;;-1.10;65.24
42811;BME280;28457;55.680;37.656;2022-11-21T22:06:34;99984.53;;;-1.06;65.40
42811;BME280;28457;55.680;37.656;2022-11-21T22:09:03;99989.09;;;-1.08;65.61
42811;BME280;28457;55.680;37.656;2022-11-21T22:11:34;99984.78;;;-1.09;64.97
42811;BME280;28457;55.680;37.656;2022-11-21T22:14:04;99982.47;;;-1.13;66.09
42811;BME280;28457;55.680;37.656;2022-11-21T22:16:33;99979.22;;;-1.17;65.71
42811;BME280;28457;55.680;37.656;2022-11-21T22:19:01;99971.50;;;-1.20;65.47
42811;BME280;28457;55.680;37.656;2022-11-21T22:21:29;99960.94;;;-1.20;66.43
42811;BME280;28457;55.680;37.656;2022-11-21T22:23:59;99959.59;;;-1.26;65.89
42811;BME280;28457;55.680;37.656;2022-11-21T22:26:49;99955.63;;;-1.31;66.63
42811;BME280;28457;55.680;37.656;2022-11-21T22:29:17;99946.94;;;-1.33;67.01
42811;BME280;28457;55.680;37.656;2022-11-21T22:31:45;99942.72;;;-1.36;67.14
42811;BME280;28457;55.680;37.656;2022-11-21T22:34:13;99935.38;;;-1.43;66.75
42811;BME280;28457;55.680;37.656;2022-11-21T22:36:41;99933.47;;;-1.41;66.04
42811;BME280;28457;55.680;37.656;2022-11-21T22:39:10;99925.63;;;-1.43;67.44
42811;BME280;28457;55.680;37.656;2022-11-21T22:41:38;99908.09;;;-1.44;66.98
42811;BME280;28457;55.680;37.656;2022-11-21T22:44:07;99905.13;;;-1.39;66.54
42811;BME280;28457;55.680;37.656;2022-11-21T22:46:36;99892.44;;;-1.34;67.63
42811;BME280;28457;55.680;37.656;2022-11-21T22:49:04;99892.28;;;-1.33;67.47
42811;BME280;28457;55.680;37.656;2022-11-21T22:51:32;99887.00;;;-1.33;67.36
42811;BME280;28457;55.680;37.656;2022-11-21T22:54:00;99881.72;;;-1.33;66.44
42811;BME280;28457;55.680;37.656;2022-11-21T22:56:28;99881.84;;;-1.34;67.40
42811;BME280;28457;55.680;37.656;2022-11-21T22:58:56;99875.25;;;-1.29;65.82
42811;BME280;28457;55.680;37.656;2022-11-21T23:01:26;99868.16;;;-1.28;66.11
42811;BME280;28457;55.680;37.656;2022-11-21T23:03:54;99868.78;;;-1.25;67.32
42811;BME280;28457;55.680;37.656;2022-11-21T23:06:23;99868.41;;;-1.31;67.28
42811;BME280;28457;55.680;37.656;2022-11-21T23:08:52;99865.88;;;-1.33;67.30
42811;BME280;28457;55.680;37.656;2022-11-21T23:11:21;99863.63;;;-1.26;67.28
42811;BME280;28457;55.680;37.656;2022-11-21T23:13:50;99858.09;;;-1.23;67.38
42811;BME280;28457;55.680;37.656;2022-11-21T23:16:19;99857.13;;;-1.22;66.57
42811;BME280;28457;55.680;37.656;2022-11-21T23:18:49;99853.28;;;-1.18;66.65
42811;BME280;28457;55.680;37.656;2022-11-21T23:21:18;99864.47;;;-1.14;66.91
42811;BME280;28457;55.680;37.656;2022-11-21T23:23:46;99860.91;;;-1.13;66.40
42811;BME280;28457;55.680;37.656;2022-11-21T23:26:14;99865.31;;;-1.14;66.76
42811;BME280;28457;55.680;37.656;2022-11-21T23:28:42;99859.41;;;-1.17;66.11
42811;BME280;28457;55.680;37.656;2022-11-21T23:31:10;99855.72;;;-1.15;66.57
42811;BME280;28457;55.680;37.656;2022-11-21T23:33:38;99854.88;;;-1.15;66.43
42811;BME280;28457;55.680;37.656;2022-11-21T23:36:08;99855.72;;;-1.15;66.23
42811;BME280;28457;55.680;37.656;2022-11-21T23:38:36;99853.19;;;-1.16;66.92
42811;BME280;28457;55.680;37.656;2022-11-21T23:41:04;99842.03;;;-1.20;66.13
42811;BME280;28457;55.680;37.656;2022-11-21T23:43:32;99832.88;;;-1.16;66.76
42811;BME280;28457;55.680;37.656;2022-11-21T23:46:00;99835.53;;;-1.16;66.86
42811;BME280;28457;55.680;37.656;2022-11-21T23:48:28;99824.72;;;-1.13;67.07
42811;BME280;28457;55.680;37.656;2022-11-21T23:50:57;99821.34;;;-1.15;66.29
42811;BME280;28457;55.680;37.656;2022-11-21T23:53:26;99818.72;;;-1.15;66.62
42811;BME280;28457;55.680;37.656;2022-11-21T23:55:54;99811.75;;;-1.16;67.36
42811;BME280;28457;55.680;37.656;2022-11-21T23:58:22;99805.84;;;-1.19;66.45
